Terminal Aerodrome Forecast
Issued by NWS Pocatello, ID

Home | Current Version | Previous Version | Text Only | Print | Product List | Glossary On
Versions: 1 2 3 4 5 6 7 8 9 10 11 12
118
FTUS45 KPIH 242328
TAFBYI
TAF
KBYI 242328Z 2500/2524 28011KT P6SM SKC
     FM250300 22006KT P6SM FEW070
     FM251800 27007KT P6SM FEW060=

USA.gov is the U.S. government's official web portal to all federal, state and local government web resources and services.